sensor_id;sensor_type;location;lat;lon;timestamp;P1;durP1;ratioP1;P2;durP2;ratioP2
55601;SDS011;59921;51.332;12.410;2022-12-24T00:02:18;3.38;;;2.50;;
55601;SDS011;59921;51.332;12.410;2022-12-24T00:04:44;3.15;;;2.50;;
55601;SDS011;59921;51.332;12.410;2022-12-24T00:07:10;3.55;;;2.55;;
55601;SDS011;59921;51.332;12.410;2022-12-24T00:09:36;3.42;;;2.50;;
55601;SDS011;59921;51.332;12.410;2022-12-24T00:12:01;2.72;;;2.20;;
55601;SDS011;59921;51.332;12.410;2022-12-24T00:14:27;3.50;;;2.75;;
55601;SDS011;59921;51.332;12.410;2022-12-24T00:16:53;3.35;;;2.50;;
55601;SDS011;59921;51.332;12.410;2022-12-24T00:19:18;3.83;;;2.40;;
55601;SDS011;59921;51.332;12.410;2022-12-24T00:21:44;2.92;;;2.40;;
55601;SDS011;59921;51.332;12.410;2022-12-24T00:24:09;3.03;;;2.33;;
55601;SDS011;59921;51.332;12.410;2022-12-24T00:26:35;3.05;;;2.35;;
55601;SDS011;59921;51.332;12.410;2022-12-24T00:29:01;3.60;;;2.50;;
55601;SDS011;59921;51.332;12.410;2022-12-24T00:31:26;5.22;;;2.28;;
55601;SDS011;59921;51.332;12.410;2022-12-24T00:33:52;3.47;;;2.63;;
55601;SDS011;59921;51.332;12.410;2022-12-24T00:36:18;2.63;;;2.00;;
55601;SDS011;59921;51.332;12.410;2022-12-24T00:38:44;3.38;;;2.40;;
55601;SDS011;59921;51.332;12.410;2022-12-24T00:41:10;3.28;;;2.33;;
55601;SDS011;59921;51.332;12.410;2022-12-24T00:43:59;3.15;;;2.20;;
55601;SDS011;59921;51.332;12.410;2022-12-24T00:46:27;3.10;;;2.10;;
55601;SDS011;59921;51.332;12.410;2022-12-24T00:48:54;2.70;;;2.25;;
55601;SDS011;59921;51.332;12.410;2022-12-24T00:51:20;2.92;;;1.92;;
55601;SDS011;59921;51.332;12.410;2022-12-24T00:53:47;2.85;;;2.17;;
55601;SDS011;59921;51.332;12.410;2022-12-24T00:56:13;4.30;;;2.20;;
55601;SDS011;59921;51.332;12.410;2022-12-24T00:58:39;2.95;;;2.25;;
55601;SDS011;59921;51.332;12.410;2022-12-24T01:01:04;3.10;;;2.30;;
55601;SDS011;59921;51.332;12.410;2022-12-24T01:03:30;2.67;;;2.10;;
55601;SDS011;59921;51.332;12.410;2022-12-24T01:08:32;2.55;;;1.90;;
55601;SDS011;59921;51.332;12.410;2022-12-24T01:10:58;3.53;;;2.00;;
55601;SDS011;59921;51.332;12.410;2022-12-24T01:13:24;3.13;;;2.15;;
55601;SDS011;59921;51.332;12.410;2022-12-24T01:15:50;3.03;;;2.13;;
55601;SDS011;59921;51.332;12.410;2022-12-24T01:18:16;3.15;;;2.10;;
55601;SDS011;59921;51.332;12.410;2022-12-24T01:20:41;3.15;;;2.17;;
55601;SDS011;59921;51.332;12.410;2022-12-24T01:23:07;3.55;;;2.10;;
55601;SDS011;59921;51.332;12.410;2022-12-24T01:25:33;2.92;;;2.28;;
55601;SDS011;59921;51.332;12.410;2022-12-24T01:28:01;3.15;;;2.25;;
55601;SDS011;59921;51.332;12.410;2022-12-24T01:30:26;2.80;;;1.90;;
55601;SDS011;59921;51.332;12.410;2022-12-24T01:32:52;2.95;;;2.15;;
55601;SDS011;59921;51.332;12.410;2022-12-24T01:35:17;3.08;;;2.10;;
55601;SDS011;59921;51.332;12.410;2022-12-24T01:37:43;3.15;;;1.92;;
55601;SDS011;59921;51.332;12.410;2022-12-24T01:40:10;2.50;;;1.80;;
55601;SDS011;59921;51.332;12.410;2022-12-24T01:42:57;2.05;;;1.67;;
55601;SDS011;59921;51.332;12.410;2022-12-24T01:45:51;2.20;;;1.80;;
55601;SDS011;59921;51.332;12.410;2022-12-24T01:51:00;2.92;;;1.83;;
55601;SDS011;59921;51.332;12.410;2022-12-24T01:53:32;4.20;;;1.85;;
55601;SDS011;59921;51.332;12.410;2022-12-24T01:56:00;2.58;;;1.90;;
55601;SDS011;59921;51.332;12.410;2022-12-24T01:58:26;2.67;;;1.92;;
55601;SDS011;59921;51.332;12.410;2022-12-24T02:00:52;3.72;;;2.00;;
55601;SDS011;59921;51.332;12.410;2022-12-24T02:03:18;3.00;;;1.80;;
55601;SDS011;59921;51.332;12.410;2022-12-24T02:05:48;2.45;;;1.90;;
55601;SDS011;59921;51.332;12.410;2022-12-24T02:08:16;2.50;;;1.70;;
55601;SDS011;59921;51.332;12.410;2022-12-24T02:10:43;2.58;;;1.63;;
55601;SDS011;59921;51.332;12.410;2022-12-24T02:13:09;3.00;;;1.92;;
55601;SDS011;59921;51.332;12.410;2022-12-24T02:16:01;3.35;;;1.60;;
55601;SDS011;59921;51.332;12.410;2022-12-24T02:18:49;2.63;;;1.65;;
55601;SDS011;59921;51.332;12.410;2022-12-24T02:30:10;2.47;;;1.70;;
55601;SDS011;59921;51.332;12.410;2022-12-24T02:35:32;2.13;;;1.50;;
55601;SDS011;59921;51.332;12.410;2022-12-24T02:38:04;2.83;;;1.60;;
55601;SDS011;59921;51.332;12.410;2022-12-24T02:40:35;3.15;;;1.63;;
55601;SDS011;59921;51.332;12.410;2022-12-24T02:43:08;3.47;;;1.65;;
55601;SDS011;59921;51.332;12.410;2022-12-24T02:45:38;2.95;;;1.67;;
55601;SDS011;59921;51.332;12.410;2022-12-24T02:48:06;2.63;;;1.58;;
55601;SDS011;59921;51.332;12.410;2022-12-24T02:50:34;2.53;;;1.63;;
55601;SDS011;59921;51.332;12.410;2022-12-24T02:53:00;2.47;;;1.58;;
55601;SDS011;59921;51.332;12.410;2022-12-24T03:09:09;2.42;;;1.30;;
55601;SDS011;59921;51.332;12.410;2022-12-24T03:11:56;3.05;;;1.50;;
55601;SDS011;59921;51.332;12.410;2022-12-24T03:14:26;2.92;;;1.67;;
55601;SDS011;59921;51.332;12.410;2022-12-24T03:16:54;2.78;;;1.70;;
55601;SDS011;59921;51.332;12.410;2022-12-24T03:19:24;2.65;;;1.40;;
55601;SDS011;59921;51.332;12.410;2022-12-24T03:21:51;3.08;;;1.40;;
55601;SDS011;59921;51.332;12.410;2022-12-24T03:24:20;2.90;;;1.60;;
55601;SDS011;59921;51.332;12.410;2022-12-24T03:26:46;2.88;;;1.50;;
55601;SDS011;59921;51.332;12.410;2022-12-24T03:29:12;2.05;;;1.33;;
55601;SDS011;59921;51.332;12.410;2022-12-24T03:31:41;3.28;;;1.55;;
55601;SDS011;59921;51.332;12.410;2022-12-24T03:34:11;2.33;;;1.60;;
55601;SDS011;59921;51.332;12.410;2022-12-24T03:36:37;3.33;;;1.40;;
55601;SDS011;59921;51.332;12.410;2022-12-24T03:39:03;3.38;;;1.65;;
55601;SDS011;59921;51.332;12.410;2022-12-24T03:41:30;2.40;;;1.50;;
55601;SDS011;59921;51.332;12.410;2022-12-24T03:43:55;3.13;;;1.70;;
55601;SDS011;59921;51.332;12.410;2022-12-24T03:46:21;3.00;;;1.55;;
55601;SDS011;59921;51.332;12.410;2022-12-24T03:48:47;3.55;;;1.60;;
55601;SDS011;59921;51.332;12.410;2022-12-24T03:51:16;2.40;;;1.70;;
55601;SDS011;59921;51.332;12.410;2022-12-24T03:53:44;2.45;;;1.60;;
55601;SDS011;59921;51.332;12.410;2022-12-24T03:56:09;1.85;;;1.30;;
55601;SDS011;59921;51.332;12.410;2022-12-24T03:58:35;2.20;;;1.42;;
55601;SDS011;59921;51.332;12.410;2022-12-24T04:01:01;2.30;;;1.38;;
55601;SDS011;59921;51.332;12.410;2022-12-24T04:03:27;3.33;;;1.75;;
55601;SDS011;59921;51.332;12.410;2022-12-24T04:06:06;2.65;;;1.50;;
55601;SDS011;59921;51.332;12.410;2022-12-24T04:08:39;2.85;;;1.60;;
55601;SDS011;59921;51.332;12.410;2022-12-24T04:11:07;2.65;;;1.38;;
55601;SDS011;59921;51.332;12.410;2022-12-24T04:13:34;2.40;;;1.30;;
55601;SDS011;59921;51.332;12.410;2022-12-24T04:16:01;2.80;;;1.50;;
55601;SDS011;59921;51.332;12.410;2022-12-24T04:18:28;2.63;;;1.50;;
55601;SDS011;59921;51.332;12.410;2022-12-24T04:20:54;3.08;;;1.55;;
55601;SDS011;59921;51.332;12.410;2022-12-24T04:23:20;3.58;;;1.70;;
55601;SDS011;59921;51.332;12.410;2022-12-24T04:25:46;2.70;;;1.40;;
55601;SDS011;59921;51.332;12.410;2022-12-24T04:28:12;3.38;;;1.60;;
55601;SDS011;59921;51.332;12.410;2022-12-24T04:30:39;3.17;;;1.40;;
55601;SDS011;59921;51.332;12.410;2022-12-24T04:33:05;2.28;;;1.40;;
55601;SDS011;59921;51.332;12.410;2022-12-24T04:35:31;2.13;;;1.35;;
55601;SDS011;59921;51.332;12.410;2022-12-24T04:37:57;2.38;;;1.30;;
55601;SDS011;59921;51.332;12.410;2022-12-24T04:40:23;2.88;;;1.40;;
55601;SDS011;59921;51.332;12.410;2022-12-24T04:42:48;4.03;;;1.30;;
55601;SDS011;59921;51.332;12.410;2022-12-24T04:45:14;3.50;;;1.45;;
55601;SDS011;59921;51.332;12.410;2022-12-24T04:47:41;3.08;;;1.63;;
55601;SDS011;59921;51.332;12.410;2022-12-24T04:50:07;4.03;;;1.60;;
55601;SDS011;59921;51.332;12.410;2022-12-24T04:52:33;3.15;;;1.40;;
55601;SDS011;59921;51.332;12.410;2022-12-24T04:55:01;2.45;;;1.38;;
55601;SDS011;59921;51.332;12.410;2022-12-24T04:57:29;2.03;;;1.40;;
55601;SDS011;59921;51.332;12.410;2022-12-24T04:59:56;2.85;;;1.50;;
55601;SDS011;59921;51.332;12.410;2022-12-24T05:02:21;2.33;;;1.40;;
55601;SDS011;59921;51.332;12.410;2022-12-24T05:04:47;3.15;;;1.45;;
55601;SDS011;59921;51.332;12.410;2022-12-24T05:07:12;3.17;;;1.40;;
55601;SDS011;59921;51.332;12.410;2022-12-24T05:09:38;1.90;;;1.20;;
55601;SDS011;59921;51.332;12.410;2022-12-24T05:12:04;3.92;;;1.58;;
55601;SDS011;59921;51.332;12.410;2022-12-24T05:14:29;2.97;;;1.30;;
55601;SDS011;59921;51.332;12.410;2022-12-24T05:16:55;2.88;;;1.35;;
55601;SDS011;59921;51.332;12.410;2022-12-24T05:19:20;2.22;;;1.10;;
55601;SDS011;59921;51.332;12.410;2022-12-24T05:21:46;2.78;;;1.13;;
55601;SDS011;59921;51.332;12.410;2022-12-24T05:24:31;2.70;;;1.58;;
55601;SDS011;59921;51.332;12.410;2022-12-24T05:27:15;2.30;;;1.08;;
55601;SDS011;59921;51.332;12.410;2022-12-24T05:29:41;3.42;;;1.50;;
55601;SDS011;59921;51.332;12.410;2022-12-24T05:32:06;2.53;;;1.30;;
55601;SDS011;59921;51.332;12.410;2022-12-24T05:34:32;3.15;;;1.40;;
55601;SDS011;59921;51.332;12.410;2022-12-24T05:36:57;2.72;;;1.20;;
55601;SDS011;59921;51.332;12.410;2022-12-24T05:39:23;2.70;;;1.33;;
55601;SDS011;59921;51.332;12.410;2022-12-24T05:41:49;3.08;;;1.30;;
55601;SDS011;59921;51.332;12.410;2022-12-24T05:44:14;2.78;;;1.33;;
55601;SDS011;59921;51.332;12.410;2022-12-24T05:46:40;2.88;;;1.50;;
55601;SDS011;59921;51.332;12.410;2022-12-24T05:49:06;3.63;;;1.40;;
55601;SDS011;59921;51.332;12.410;2022-12-24T05:51:32;2.67;;;1.33;;
55601;SDS011;59921;51.332;12.410;2022-12-24T05:53:58;3.30;;;1.40;;
55601;SDS011;59921;51.332;12.410;2022-12-24T05:56:23;2.75;;;1.30;;
55601;SDS011;59921;51.332;12.410;2022-12-24T05:58:49;2.50;;;1.30;;
55601;SDS011;59921;51.332;12.410;2022-12-24T06:01:16;2.80;;;1.27;;
55601;SDS011;59921;51.332;12.410;2022-12-24T06:03:42;2.67;;;1.40;;
55601;SDS011;59921;51.332;12.410;2022-12-24T06:06:12;3.00;;;1.27;;
55601;SDS011;59921;51.332;12.410;2022-12-24T06:08:39;2.83;;;1.30;;
55601;SDS011;59921;51.332;12.410;2022-12-24T06:11:07;3.63;;;1.38;;
55601;SDS011;59921;51.332;12.410;2022-12-24T06:13:35;2.60;;;1.40;;
55601;SDS011;59921;51.332;12.410;2022-12-24T06:16:02;2.92;;;1.30;;
55601;SDS011;59921;51.332;12.410;2022-12-24T06:18:29;2.47;;;1.10;;
55601;SDS011;59921;51.332;12.410;2022-12-24T06:20:56;2.67;;;1.10;;
55601;SDS011;59921;51.332;12.410;2022-12-24T06:23:23;2.63;;;1.40;;
55601;SDS011;59921;51.332;12.410;2022-12-24T06:25:50;2.85;;;1.48;;
55601;SDS011;59921;51.332;12.410;2022-12-24T06:28:16;3.08;;;1.50;;
55601;SDS011;59921;51.332;12.410;2022-12-24T06:30:46;2.55;;;1.10;;
55601;SDS011;59921;51.332;12.410;2022-12-24T06:33:13;1.85;;;1.15;;
55601;SDS011;59921;51.332;12.410;2022-12-24T06:35:39;2.70;;;1.20;;
55601;SDS011;59921;51.332;12.410;2022-12-24T06:38:04;3.38;;;1.40;;
55601;SDS011;59921;51.332;12.410;2022-12-24T06:40:30;3.35;;;1.30;;
55601;SDS011;59921;51.332;12.410;2022-12-24T06:42:55;3.03;;;1.23;;
55601;SDS011;59921;51.332;12.410;2022-12-24T06:45:21;2.55;;;1.10;;
55601;SDS011;59921;51.332;12.410;2022-12-24T06:47:46;2.83;;;1.27;;
55601;SDS011;59921;51.332;12.410;2022-12-24T06:50:12;2.80;;;1.30;;
55601;SDS011;59921;51.332;12.410;2022-12-24T06:52:40;3.00;;;1.30;;
55601;SDS011;59921;51.332;12.410;2022-12-24T06:55:07;2.70;;;1.33;;
55601;SDS011;59921;51.332;12.410;2022-12-24T06:57:32;3.20;;;1.30;;
55601;SDS011;59921;51.332;12.410;2022-12-24T06:59:58;2.17;;;1.10;;
55601;SDS011;59921;51.332;12.410;2022-12-24T07:02:24;3.13;;;1.30;;
55601;SDS011;59921;51.332;12.410;2022-12-24T07:04:49;3.30;;;1.50;;
55601;SDS011;59921;51.332;12.410;2022-12-24T07:07:15;3.30;;;1.40;;
55601;SDS011;59921;51.332;12.410;2022-12-24T07:09:40;2.85;;;1.30;;
55601;SDS011;59921;51.332;12.410;2022-12-24T07:12:06;2.35;;;1.58;;
55601;SDS011;59921;51.332;12.410;2022-12-24T07:14:32;3.78;;;1.75;;
55601;SDS011;59921;51.332;12.410;2022-12-24T07:16:58;3.50;;;1.50;;
55601;SDS011;59921;51.332;12.410;2022-12-24T07:19:23;4.35;;;1.60;;
55601;SDS011;59921;51.332;12.410;2022-12-24T07:21:49;2.80;;;1.45;;
55601;SDS011;59921;51.332;12.410;2022-12-24T07:24:15;2.45;;;1.30;;
55601;SDS011;59921;51.332;12.410;2022-12-24T07:26:41;3.90;;;1.33;;
55601;SDS011;59921;51.332;12.410;2022-12-24T07:29:06;3.03;;;1.48;;
55601;SDS011;59921;51.332;12.410;2022-12-24T07:31:32;3.10;;;1.42;;
55601;SDS011;59921;51.332;12.410;2022-12-24T07:33:58;3.88;;;1.45;;
55601;SDS011;59921;51.332;12.410;2022-12-24T07:36:23;3.03;;;1.52;;
55601;SDS011;59921;51.332;12.410;2022-12-24T07:38:49;2.88;;;1.30;;
55601;SDS011;59921;51.332;12.410;2022-12-24T07:41:15;2.97;;;1.58;;
55601;SDS011;59921;51.332;12.410;2022-12-24T07:43:41;2.80;;;1.52;;
55601;SDS011;59921;51.332;12.410;2022-12-24T07:46:06;2.65;;;1.45;;
55601;SDS011;59921;51.332;12.410;2022-12-24T07:48:32;4.13;;;1.65;;
55601;SDS011;59921;51.332;12.410;2022-12-24T07:50:58;3.58;;;1.55;;
55601;SDS011;59921;51.332;12.410;2022-12-24T07:53:25;3.20;;;1.67;;
55601;SDS011;59921;51.332;12.410;2022-12-24T07:55:52;3.28;;;1.50;;
55601;SDS011;59921;51.332;12.410;2022-12-24T07:58:18;3.72;;;1.60;;
55601;SDS011;59921;51.332;12.410;2022-12-24T08:00:44;2.30;;;1.42;;
55601;SDS011;59921;51.332;12.410;2022-12-24T08:03:16;3.42;;;1.50;;
55601;SDS011;59921;51.332;12.410;2022-12-24T08:05:43;3.70;;;1.60;;
55601;SDS011;59921;51.332;12.410;2022-12-24T08:08:09;2.58;;;1.40;;
55601;SDS011;59921;51.332;12.410;2022-12-24T08:10:37;2.88;;;1.40;;
55601;SDS011;59921;51.332;12.410;2022-12-24T08:13:03;4.05;;;1.60;;
55601;SDS011;59921;51.332;12.410;2022-12-24T08:15:28;3.22;;;1.58;;
55601;SDS011;59921;51.332;12.410;2022-12-24T08:17:54;3.55;;;1.60;;
55601;SDS011;59921;51.332;12.410;2022-12-24T08:20:20;2.47;;;1.33;;
55601;SDS011;59921;51.332;12.410;2022-12-24T08:22:45;3.13;;;1.40;;
55601;SDS011;59921;51.332;12.410;2022-12-24T08:25:10;3.90;;;1.40;;
55601;SDS011;59921;51.332;12.410;2022-12-24T08:27:36;3.20;;;1.48;;
55601;SDS011;59921;51.332;12.410;2022-12-24T08:30:02;2.92;;;1.40;;
55601;SDS011;59921;51.332;12.410;2022-12-24T08:32:29;3.97;;;1.33;;
55601;SDS011;59921;51.332;12.410;2022-12-24T08:34:55;3.33;;;1.55;;
55601;SDS011;59921;51.332;12.410;2022-12-24T08:37:20;4.22;;;1.50;;
55601;SDS011;59921;51.332;12.410;2022-12-24T08:39:46;3.03;;;1.50;;
55601;SDS011;59921;51.332;12.410;2022-12-24T08:42:11;2.90;;;1.48;;
55601;SDS011;59921;51.332;12.410;2022-12-24T08:44:37;3.08;;;1.38;;
55601;SDS011;59921;51.332;12.410;2022-12-24T08:47:03;2.60;;;1.40;;
55601;SDS011;59921;51.332;12.410;2022-12-24T08:49:28;2.88;;;1.55;;
55601;SDS011;59921;51.332;12.410;2022-12-24T08:51:54;3.67;;;1.60;;
55601;SDS011;59921;51.332;12.410;2022-12-24T08:54:19;3.92;;;1.52;;
55601;SDS011;59921;51.332;12.410;2022-12-24T08:56:46;3.20;;;1.50;;
55601;SDS011;59921;51.332;12.410;2022-12-24T08:59:12;3.42;;;1.60;;
55601;SDS011;59921;51.332;12.410;2022-12-24T09:01:37;3.22;;;1.63;;
55601;SDS011;59921;51.332;12.410;2022-12-24T09:04:03;3.65;;;1.50;;
55601;SDS011;59921;51.332;12.410;2022-12-24T09:06:30;4.40;;;1.50;;
55601;SDS011;59921;51.332;12.410;2022-12-24T09:08:56;3.83;;;1.48;;
55601;SDS011;59921;51.332;12.410;2022-12-24T09:11:22;3.03;;;1.40;;
55601;SDS011;59921;51.332;12.410;2022-12-24T09:13:47;3.00;;;1.67;;
55601;SDS011;59921;51.332;12.410;2022-12-24T09:16:13;3.15;;;1.50;;
55601;SDS011;59921;51.332;12.410;2022-12-24T09:18:39;3.78;;;1.58;;
55601;SDS011;59921;51.332;12.410;2022-12-24T09:21:06;3.90;;;1.50;;
55601;SDS011;59921;51.332;12.410;2022-12-24T09:23:35;2.83;;;1.45;;
55601;SDS011;59921;51.332;12.410;2022-12-24T09:31:04;3.15;;;1.30;;
55601;SDS011;59921;51.332;12.410;2022-12-24T09:33:32;4.63;;;1.70;;
55601;SDS011;59921;51.332;12.410;2022-12-24T09:35:59;4.63;;;1.70;;
55601;SDS011;59921;51.332;12.410;2022-12-24T09:38:26;3.75;;;1.63;;
55601;SDS011;59921;51.332;12.410;2022-12-24T09:40:52;3.30;;;1.45;;
55601;SDS011;59921;51.332;12.410;2022-12-24T09:43:22;3.40;;;1.20;;
55601;SDS011;59921;51.332;12.410;2022-12-24T09:48:30;4.10;;;1.75;;
55601;SDS011;59921;51.332;12.410;2022-12-24T09:53:46;3.42;;;1.50;;
55601;SDS011;59921;51.332;12.410;2022-12-24T09:56:26;3.58;;;1.75;;
55601;SDS011;59921;51.332;12.410;2022-12-24T09:58:58;3.17;;;1.52;;
55601;SDS011;59921;51.332;12.410;2022-12-24T10:01:27;3.33;;;1.38;;
55601;SDS011;59921;51.332;12.410;2022-12-24T10:03:54;3.55;;;1.50;;
55601;SDS011;59921;51.332;12.410;2022-12-24T10:06:21;3.45;;;1.52;;
55601;SDS011;59921;51.332;12.410;2022-12-24T10:14:54;3.85;;;1.63;;
55601;SDS011;59921;51.332;12.410;2022-12-24T10:17:40;3.55;;;1.73;;
55601;SDS011;59921;51.332;12.410;2022-12-24T10:26:12;3.78;;;1.55;;
55601;SDS011;59921;51.332;12.410;2022-12-24T10:31:31;4.13;;;1.80;;
55601;SDS011;59921;51.332;12.410;2022-12-24T10:34:11;3.47;;;1.40;;
55601;SDS011;59921;51.332;12.410;2022-12-24T10:36:41;3.53;;;1.67;;
55601;SDS011;59921;51.332;12.410;2022-12-24T10:39:12;4.03;;;1.73;;
55601;SDS011;59921;51.332;12.410;2022-12-24T10:41:47;4.75;;;1.85;;
55601;SDS011;59921;51.332;12.410;2022-12-24T10:44:20;3.17;;;1.58;;
55601;SDS011;59921;51.332;12.410;2022-12-24T10:46:48;3.83;;;1.58;;
55601;SDS011;59921;51.332;12.410;2022-12-24T10:49:15;4.00;;;1.63;;
55601;SDS011;59921;51.332;12.410;2022-12-24T10:51:50;3.63;;;1.75;;
55601;SDS011;59921;51.332;12.410;2022-12-24T10:54:22;3.72;;;1.60;;
55601;SDS011;59921;51.332;12.410;2022-12-24T10:56:50;3.67;;;1.60;;
55601;SDS011;59921;51.332;12.410;2022-12-24T10:59:21;3.63;;;1.55;;
55601;SDS011;59921;51.332;12.410;2022-12-24T11:01:49;3.20;;;1.45;;
55601;SDS011;59921;51.332;12.410;2022-12-24T11:04:16;3.53;;;1.73;;
55601;SDS011;59921;51.332;12.410;2022-12-24T11:06:50;5.10;;;1.83;;
55601;SDS011;59921;51.332;12.410;2022-12-24T11:09:21;5.22;;;2.05;;
55601;SDS011;59921;51.332;12.410;2022-12-24T11:11:49;3.33;;;1.80;;
55601;SDS011;59921;51.332;12.410;2022-12-24T11:14:15;4.63;;;1.70;;
55601;SDS011;59921;51.332;12.410;2022-12-24T11:16:55;5.00;;;1.83;;
55601;SDS011;59921;51.332;12.410;2022-12-24T11:19:32;5.35;;;1.85;;
55601;SDS011;59921;51.332;12.410;2022-12-24T11:22:04;5.22;;;1.92;;
55601;SDS011;59921;51.332;12.410;2022-12-24T11:24:33;4.07;;;1.77;;
55601;SDS011;59921;51.332;12.410;2022-12-24T11:32:37;5.45;;;1.92;;
55601;SDS011;59921;51.332;12.410;2022-12-24T11:35:06;3.70;;;1.70;;
55601;SDS011;59921;51.332;12.410;2022-12-24T11:37:38;3.75;;;1.75;;
55601;SDS011;59921;51.332;12.410;2022-12-24T11:40:04;4.03;;;1.98;;
55601;SDS011;59921;51.332;12.410;2022-12-24T11:42:31;4.50;;;1.90;;
55601;SDS011;59921;51.332;12.410;2022-12-24T11:45:00;4.00;;;1.60;;
55601;SDS011;59921;51.332;12.410;2022-12-24T11:47:33;4.50;;;1.90;;
55601;SDS011;59921;51.332;12.410;2022-12-24T11:52:46;4.70;;;2.15;;
55601;SDS011;59921;51.332;12.410;2022-12-24T11:55:15;3.75;;;1.90;;
55601;SDS011;59921;51.332;12.410;2022-12-24T11:57:55;4.43;;;1.90;;
55601;SDS011;59921;51.332;12.410;2022-12-24T12:00:25;3.90;;;1.83;;
55601;SDS011;59921;51.332;12.410;2022-12-24T12:02:51;4.05;;;1.85;;
55601;SDS011;59921;51.332;12.410;2022-12-24T12:05:21;3.15;;;1.70;;
55601;SDS011;59921;51.332;12.410;2022-12-24T12:07:51;4.00;;;1.90;;
55601;SDS011;59921;51.332;12.410;2022-12-24T12:12:59;4.40;;;2.10;;
55601;SDS011;59921;51.332;12.410;2022-12-24T12:15:32;3.20;;;1.60;;
55601;SDS011;59921;51.332;12.410;2022-12-24T12:18:06;4.38;;;1.80;;
55601;SDS011;59921;51.332;12.410;2022-12-24T12:23:10;4.32;;;1.70;;
55601;SDS011;59921;51.332;12.410;2022-12-24T12:26:03;3.50;;;1.80;;
55601;SDS011;59921;51.332;12.410;2022-12-24T12:28:45;3.95;;;1.80;;
55601;SDS011;59921;51.332;12.410;2022-12-24T12:31:16;4.97;;;1.85;;
55601;SDS011;59921;51.332;12.410;2022-12-24T12:33:49;5.18;;;2.00;;
55601;SDS011;59921;51.332;12.410;2022-12-24T12:36:23;3.85;;;1.60;;
55601;SDS011;59921;51.332;12.410;2022-12-24T12:38:52;3.28;;;1.70;;
55601;SDS011;59921;51.332;12.410;2022-12-24T12:55:53;4.05;;;1.70;;
55601;SDS011;59921;51.332;12.410;2022-12-24T13:00:51;2.88;;;1.83;;
55601;SDS011;59921;51.332;12.410;2022-12-24T13:08:56;3.70;;;1.48;;
55601;SDS011;59921;51.332;12.410;2022-12-24T13:17:17;4.50;;;2.10;;
55601;SDS011;59921;51.332;12.410;2022-12-24T13:22:37;4.13;;;1.70;;
55601;SDS011;59921;51.332;12.410;2022-12-24T13:25:03;4.13;;;1.60;;
55601;SDS011;59921;51.332;12.410;2022-12-24T13:27:30;3.25;;;1.60;;
55601;SDS011;59921;51.332;12.410;2022-12-24T13:34:53;3.72;;;1.75;;
55601;SDS011;59921;51.332;12.410;2022-12-24T13:48:15;3.50;;;1.50;;
55601;SDS011;59921;51.332;12.410;2022-12-24T13:53:25;3.78;;;2.00;;
55601;SDS011;59921;51.332;12.410;2022-12-24T13:55:58;3.10;;;1.70;;
55601;SDS011;59921;51.332;12.410;2022-12-24T13:58:33;2.40;;;1.42;;
55601;SDS011;59921;51.332;12.410;2022-12-24T14:01:05;3.13;;;1.60;;
55601;SDS011;59921;51.332;12.410;2022-12-24T14:14:33;3.75;;;1.67;;
55601;SDS011;59921;51.332;12.410;2022-12-24T14:17:00;3.33;;;1.77;;
55601;SDS011;59921;51.332;12.410;2022-12-24T14:19:28;3.97;;;1.67;;
55601;SDS011;59921;51.332;12.410;2022-12-24T14:24:41;2.72;;;1.35;;
55601;SDS011;59921;51.332;12.410;2022-12-24T14:27:16;2.67;;;1.45;;
55601;SDS011;59921;51.332;12.410;2022-12-24T14:29:49;5.15;;;1.80;;
55601;SDS011;59921;51.332;12.410;2022-12-24T14:32:17;3.40;;;1.50;;
55601;SDS011;59921;51.332;12.410;2022-12-24T14:34:43;2.83;;;1.30;;
55601;SDS011;59921;51.332;12.410;2022-12-24T14:37:09;2.63;;;1.35;;
55601;SDS011;59921;51.332;12.410;2022-12-24T14:39:45;2.50;;;1.40;;
55601;SDS011;59921;51.332;12.410;2022-12-24T14:55:47;3.30;;;1.60;;
55601;SDS011;59921;51.332;12.410;2022-12-24T15:00:48;2.63;;;1.40;;
55601;SDS011;59921;51.332;12.410;2022-12-24T15:03:15;3.30;;;1.23;;
55601;SDS011;59921;51.332;12.410;2022-12-24T15:05:42;2.22;;;1.23;;
55601;SDS011;59921;51.332;12.410;2022-12-24T15:08:19;2.10;;;1.08;;
55601;SDS011;59921;51.332;12.410;2022-12-24T15:10:50;2.33;;;1.25;;
55601;SDS011;59921;51.332;12.410;2022-12-24T15:16:17;3.00;;;1.60;;
55601;SDS011;59921;51.332;12.410;2022-12-24T15:18:51;3.60;;;1.43;;
55601;SDS011;59921;51.332;12.410;2022-12-24T15:21:28;2.78;;;1.30;;
55601;SDS011;59921;51.332;12.410;2022-12-24T15:23:56;2.95;;;1.40;;
55601;SDS011;59921;51.332;12.410;2022-12-24T15:28:50;2.60;;;1.30;;
55601;SDS011;59921;51.332;12.410;2022-12-24T15:31:20;3.95;;;1.40;;
55601;SDS011;59921;51.332;12.410;2022-12-24T15:33:47;3.08;;;1.45;;
55601;SDS011;59921;51.332;12.410;2022-12-24T15:36:15;2.63;;;1.30;;
55601;SDS011;59921;51.332;12.410;2022-12-24T15:38:49;3.47;;;1.38;;
55601;SDS011;59921;51.332;12.410;2022-12-24T15:41:22;2.20;;;1.30;;
55601;SDS011;59921;51.332;12.410;2022-12-24T15:43:50;3.10;;;1.40;;
55601;SDS011;59921;51.332;12.410;2022-12-24T15:48:45;2.63;;;1.25;;
55601;SDS011;59921;51.332;12.410;2022-12-24T15:51:18;2.45;;;1.23;;
55601;SDS011;59921;51.332;12.410;2022-12-24T15:53:47;2.63;;;1.20;;
55601;SDS011;59921;51.332;12.410;2022-12-24T16:01:45;3.42;;;1.50;;
55601;SDS011;59921;51.332;12.410;2022-12-24T16:04:12;2.80;;;1.27;;
55601;SDS011;59921;51.332;12.410;2022-12-24T16:06:58;3.17;;;1.40;;
55601;SDS011;59921;51.332;12.410;2022-12-24T16:12:03;3.13;;;1.27;;
55601;SDS011;59921;51.332;12.410;2022-12-24T16:14:28;2.70;;;1.30;;
55601;SDS011;59921;51.332;12.410;2022-12-24T16:16:56;2.15;;;1.30;;
55601;SDS011;59921;51.332;12.410;2022-12-24T16:19:26;3.25;;;1.70;;
55601;SDS011;59921;51.332;12.410;2022-12-24T16:21:56;1.85;;;1.25;;
55601;SDS011;59921;51.332;12.410;2022-12-24T16:24:44;2.20;;;1.15;;
55601;SDS011;59921;51.332;12.410;2022-12-24T16:27:10;2.97;;;1.33;;
55601;SDS011;59921;51.332;12.410;2022-12-24T16:29:37;3.30;;;1.40;;
55601;SDS011;59921;51.332;12.410;2022-12-24T16:32:03;3.90;;;1.42;;
55601;SDS011;59921;51.332;12.410;2022-12-24T16:34:29;3.25;;;1.42;;
55601;SDS011;59921;51.332;12.410;2022-12-24T16:36:56;3.92;;;1.40;;
55601;SDS011;59921;51.332;12.410;2022-12-24T16:39:24;2.45;;;1.35;;
55601;SDS011;59921;51.332;12.410;2022-12-24T16:42:02;3.72;;;1.50;;
55601;SDS011;59921;51.332;12.410;2022-12-24T16:44:47;2.80;;;1.40;;
55601;SDS011;59921;51.332;12.410;2022-12-24T16:47:14;2.25;;;1.35;;
55601;SDS011;59921;51.332;12.410;2022-12-24T16:49:43;3.28;;;1.45;;
55601;SDS011;59921;51.332;12.410;2022-12-24T16:52:16;2.35;;;1.30;;
55601;SDS011;59921;51.332;12.410;2022-12-24T16:54:46;2.78;;;1.35;;
55601;SDS011;59921;51.332;12.410;2022-12-24T16:57:12;2.88;;;1.45;;
55601;SDS011;59921;51.332;12.410;2022-12-24T16:59:38;3.35;;;1.60;;
55601;SDS011;59921;51.332;12.410;2022-12-24T17:02:04;2.70;;;1.45;;
55601;SDS011;59921;51.332;12.410;2022-12-24T17:04:30;3.30;;;1.35;;
55601;SDS011;59921;51.332;12.410;2022-12-24T17:06:56;2.38;;;1.20;;
55601;SDS011;59921;51.332;12.410;2022-12-24T17:09:22;2.97;;;1.35;;
55601;SDS011;59921;51.332;12.410;2022-12-24T17:11:48;3.65;;;1.55;;
55601;SDS011;59921;51.332;12.410;2022-12-24T17:14:13;2.38;;;1.23;;
55601;SDS011;59921;51.332;12.410;2022-12-24T17:16:39;4.07;;;1.60;;
55601;SDS011;59921;51.332;12.410;2022-12-24T17:19:05;2.55;;;1.20;;
55601;SDS011;59921;51.332;12.410;2022-12-24T17:21:31;2.90;;;1.40;;
55601;SDS011;59921;51.332;12.410;2022-12-24T17:23:56;3.53;;;1.20;;
55601;SDS011;59921;51.332;12.410;2022-12-24T17:26:22;3.13;;;1.20;;